createdAt,value
2023-10-05T00:02:02.191Z,2.80
2023-10-05T00:04:33.487Z,2.88
2023-10-05T00:09:27.592Z,2.72
2023-10-05T00:11:57.831Z,2.75
2023-10-05T00:14:27.748Z,2.47
2023-10-05T00:16:56.728Z,2.70
2023-10-05T00:19:28.018Z,2.55
2023-10-05T00:21:58.703Z,2.80
2023-10-05T00:24:38.773Z,2.55
2023-10-05T00:27:15.087Z,3.22
2023-10-05T00:29:43.172Z,2.65
2023-10-05T00:32:35.089Z,3.03
2023-10-05T00:35:20.424Z,2.72
2023-10-05T00:37:48.470Z,3.08
2023-10-05T00:40:26.121Z,2.85
2023-10-05T00:42:53.231Z,3.15
2023-10-05T00:45:26.296Z,2.85
2023-10-05T00:47:59.295Z,3.05
2023-10-05T00:50:26.303Z,3.20
2023-10-05T00:52:53.455Z,2.90
2023-10-05T00:55:21.688Z,2.88
2023-10-05T00:57:50.297Z,2.85
2023-10-05T01:00:29.860Z,3.03
2023-10-05T01:03:23.544Z,2.63
2023-10-05T01:06:13.555Z,2.42
2023-10-05T01:09:00.801Z,2.38
2023-10-05T01:11:53.836Z,3.28
2023-10-05T01:14:24.557Z,3.10
2023-10-05T01:16:55.638Z,2.72
2023-10-05T01:19:22.822Z,2.55
2023-10-05T01:21:52.893Z,3.20
2023-10-05T01:24:24.818Z,2.63
2023-10-05T01:26:51.799Z,3.17
2023-10-05T01:29:18.752Z,3.28
2023-10-05T01:31:45.782Z,3.15
2023-10-05T01:34:13.330Z,3.33
2023-10-05T01:36:40.636Z,3.42
2023-10-05T01:39:10.829Z,3.08
2023-10-05T01:41:39.087Z,2.97
2023-10-05T01:44:07.090Z,3.70
2023-10-05T01:46:37.091Z,3.33
2023-10-05T01:49:06.079Z,3.40
2023-10-05T01:51:33.324Z,3.17
2023-10-05T01:54:02.039Z,2.63
2023-10-05T01:56:30.177Z,3.22
2023-10-05T01:58:57.292Z,3.00
2023-10-05T02:01:28.319Z,3.47
2023-10-05T02:06:24.018Z,3.40
2023-10-05T02:08:50.970Z,3.50
2023-10-05T02:11:28.776Z,3.28
2023-10-05T02:13:59.410Z,3.22
2023-10-05T02:16:27.816Z,3.10
2023-10-05T02:18:56.851Z,3.17
2023-10-05T02:21:39.356Z,3.58
2023-10-05T02:24:19.957Z,3.22
2023-10-05T02:27:00.458Z,3.72
2023-10-05T02:29:30.689Z,3.33
2023-10-05T02:32:05.892Z,3.47
2023-10-05T02:34:48.786Z,3.33
2023-10-05T02:37:21.379Z,3.67
2023-10-05T02:39:50.030Z,3.47
2023-10-05T02:42:22.419Z,3.15
2023-10-05T02:44:51.219Z,4.35
2023-10-05T02:47:24.410Z,3.30
2023-10-05T02:49:51.569Z,3.83
2023-10-05T02:52:18.873Z,3.33
2023-10-05T02:54:49.371Z,3.88
2023-10-05T02:57:21.540Z,3.78
2023-10-05T02:59:51.390Z,3.55
2023-10-05T03:02:24.374Z,3.83
2023-10-05T03:05:00.921Z,4.03
2023-10-05T03:07:28.023Z,3.55
2023-10-05T03:10:00.827Z,3.88
2023-10-05T03:12:29.110Z,3.53
2023-10-05T03:14:57.632Z,3.55
2023-10-05T03:17:27.903Z,3.53
2023-10-05T03:19:55.364Z,3.22
2023-10-05T03:22:26.003Z,3.83
2023-10-05T03:24:55.318Z,4.45
2023-10-05T03:27:23.860Z,3.97
2023-10-05T03:30:06.676Z,3.63
2023-10-05T03:32:36.857Z,4.57
2023-10-05T03:35:05.870Z,3.95
2023-10-05T03:37:33.115Z,3.75
2023-10-05T03:40:06.506Z,4.88
2023-10-05T03:42:34.030Z,4.32
2023-10-05T03:45:21.237Z,3.58
2023-10-05T03:47:50.606Z,3.72
2023-10-05T03:50:20.607Z,4.10
2023-10-05T03:52:48.291Z,4.10
2023-10-05T03:55:20.542Z,4.22
2023-10-05T03:57:48.181Z,4.63
2023-10-05T04:00:24.177Z,4.35
2023-10-05T04:02:55.994Z,4.57
2023-10-05T04:05:24.502Z,4.60
2023-10-05T04:07:53.524Z,3.78
2023-10-05T04:10:35.732Z,4.15
2023-10-05T04:13:02.848Z,4.68
2023-10-05T04:15:30.591Z,4.10
2023-10-05T04:17:57.541Z,4.93
2023-10-05T04:20:30.703Z,4.53
2023-10-05T04:22:57.880Z,3.83
2023-10-05T04:25:25.271Z,3.90
2023-10-05T04:27:54.235Z,4.15
2023-10-05T04:30:22.866Z,4.43
2023-10-05T04:32:50.346Z,4.43
2023-10-05T04:35:24.255Z,4.03
2023-10-05T04:37:51.516Z,4.40
2023-10-05T04:40:23.264Z,3.97
2023-10-05T04:42:51.584Z,3.97
2023-10-05T04:45:22.179Z,3.75
2023-10-05T04:47:50.385Z,4.65
2023-10-05T04:50:18.591Z,4.78
2023-10-05T04:52:52.391Z,4.68
2023-10-05T04:55:24.619Z,4.55
2023-10-05T04:57:53.732Z,4.32
2023-10-05T05:00:39.479Z,4.80
2023-10-05T05:03:18.390Z,4.70
2023-10-05T05:06:00.792Z,4.68
2023-10-05T05:08:33.190Z,4.72
2023-10-05T05:11:00.180Z,4.88
2023-10-05T05:13:29.843Z,5.00
2023-10-05T05:15:58.436Z,5.90
2023-10-05T05:18:26.035Z,5.57
2023-10-05T05:20:55.414Z,5.93
2023-10-05T05:23:22.527Z,5.68
2023-10-05T05:25:53.491Z,5.80
2023-10-05T05:28:20.590Z,5.10
2023-10-05T05:30:48.612Z,5.32
2023-10-05T05:33:15.725Z,6.00
2023-10-05T05:35:44.305Z,6.10
2023-10-05T05:38:11.919Z,5.70
2023-10-05T05:40:40.012Z,6.63
2023-10-05T05:43:12.842Z,5.15
2023-10-05T05:45:46.185Z,6.20
2023-10-05T05:48:15.928Z,5.43
2023-10-05T05:50:44.797Z,6.00
2023-10-05T05:53:15.585Z,5.22
2023-10-05T05:55:46.033Z,5.05
2023-10-05T05:58:18.360Z,6.10
2023-10-05T06:00:48.842Z,5.88
2023-10-05T06:03:16.613Z,5.15
2023-10-05T06:05:43.691Z,5.95
2023-10-05T06:08:12.877Z,5.55
2023-10-05T06:10:39.850Z,5.63
2023-10-05T06:13:07.530Z,5.70
2023-10-05T06:15:37.354Z,5.28
2023-10-05T06:18:04.628Z,6.35
2023-10-05T06:20:33.329Z,5.72
2023-10-05T06:23:01.834Z,5.78
2023-10-05T06:25:29.318Z,5.85
2023-10-05T06:27:56.454Z,6.18
2023-10-05T06:30:23.652Z,6.20
2023-10-05T06:32:50.861Z,5.88
2023-10-05T06:35:19.482Z,6.55
2023-10-05T06:37:46.691Z,6.10
2023-10-05T06:40:14.857Z,5.75
2023-10-05T06:42:43.671Z,5.72
2023-10-05T06:45:17.344Z,5.95
2023-10-05T06:47:44.906Z,6.22
2023-10-05T06:50:12.437Z,6.10
2023-10-05T06:52:49.994Z,6.43
2023-10-05T06:55:23.237Z,6.20
2023-10-05T06:57:51.619Z,5.90
2023-10-05T07:00:22.974Z,6.53
2023-10-05T07:02:55.915Z,5.57
2023-10-05T07:05:23.000Z,4.97
2023-10-05T07:07:49.927Z,5.72
2023-10-05T07:10:18.384Z,5.45
2023-10-05T07:12:47.953Z,6.25
2023-10-05T07:15:16.507Z,6.13
2023-10-05T07:17:43.609Z,5.35
2023-10-05T07:20:12.971Z,5.43
2023-10-05T07:22:42.944Z,5.03
2023-10-05T07:25:12.271Z,5.72
2023-10-05T07:27:41.018Z,5.35
2023-10-05T07:30:10.152Z,4.50
2023-10-05T07:32:37.860Z,4.53
2023-10-05T07:35:09.305Z,5.38
2023-10-05T07:37:37.246Z,4.60
2023-10-05T07:40:15.059Z,4.70
2023-10-05T07:42:42.885Z,4.38
2023-10-05T07:45:13.203Z,3.88
2023-10-05T07:47:48.124Z,4.15
2023-10-05T07:50:16.125Z,3.53
2023-10-05T07:52:49.667Z,3.67
2023-10-05T07:55:17.098Z,3.88
2023-10-05T07:57:44.455Z,3.53
2023-10-05T08:00:14.026Z,3.58
2023-10-05T08:02:42.889Z,3.60
2023-10-05T08:05:12.140Z,2.70
2023-10-05T08:07:39.733Z,2.78
2023-10-05T08:10:07.809Z,2.95
2023-10-05T08:12:34.774Z,2.83
2023-10-05T08:15:01.722Z,2.55
2023-10-05T08:17:31.067Z,2.85
2023-10-05T08:19:57.995Z,2.92
2023-10-05T08:22:25.945Z,2.67
2023-10-05T08:24:54.271Z,3.00
2023-10-05T08:27:21.332Z,3.60
2023-10-05T08:29:48.745Z,3.33
2023-10-05T08:32:17.330Z,4.28
2023-10-05T08:34:46.482Z,3.38
2023-10-05T08:37:14.722Z,3.22
2023-10-05T08:39:42.485Z,3.72
2023-10-05T08:42:09.439Z,3.35
2023-10-05T08:44:40.300Z,3.58
2023-10-05T08:47:12.456Z,3.20
2023-10-05T08:49:40.914Z,3.25
2023-10-05T08:52:15.888Z,2.83
2023-10-05T08:54:47.119Z,3.08
2023-10-05T08:59:48.935Z,2.50
2023-10-05T09:02:23.362Z,3.00
2023-10-05T09:05:01.334Z,3.20
2023-10-05T09:07:39.803Z,3.42
2023-10-05T09:10:10.046Z,3.10
2023-10-05T09:12:42.502Z,3.05
2023-10-05T09:15:16.291Z,3.25
2023-10-05T09:17:58.656Z,3.67
2023-10-05T09:20:31.874Z,3.20
2023-10-05T09:23:01.664Z,3.97
2023-10-05T09:25:39.828Z,3.95
2023-10-05T09:28:18.385Z,4.13
2023-10-05T09:30:57.072Z,4.13
2023-10-05T09:33:35.507Z,4.55
2023-10-05T09:36:21.252Z,4.82
2023-10-05T09:38:50.258Z,4.05
2023-10-05T09:41:19.030Z,4.53
2023-10-05T09:43:45.968Z,4.93
2023-10-05T09:46:16.253Z,5.20
2023-10-05T09:48:44.963Z,5.07
2023-10-05T09:51:15.470Z,5.07
2023-10-05T09:53:45.549Z,4.35
2023-10-05T09:56:17.368Z,4.78
2023-10-05T09:58:48.426Z,4.88
2023-10-05T10:01:24.781Z,3.65
2023-10-05T10:03:54.788Z,4.72
2023-10-05T10:06:29.510Z,4.72
2023-10-05T10:09:09.667Z,4.40
2023-10-05T10:11:37.617Z,4.10
2023-10-05T10:14:16.216Z,4.35
2023-10-05T10:16:44.561Z,4.10
2023-10-05T10:19:21.708Z,4.30
2023-10-05T10:21:58.369Z,4.10
2023-10-05T10:24:29.646Z,4.43
2023-10-05T10:27:13.817Z,4.07
2023-10-05T10:29:55.297Z,4.18
2023-10-05T10:32:24.696Z,4.40
2023-10-05T10:34:56.981Z,5.05
2023-10-05T10:37:41.302Z,5.30
2023-10-05T10:40:21.766Z,5.75
2023-10-05T10:43:07.974Z,6.33
2023-10-05T10:45:48.017Z,6.28
2023-10-05T10:48:18.339Z,9.75
2023-10-05T10:50:47.765Z,9.48
2023-10-05T10:53:18.795Z,6.32
2023-10-05T10:58:27.733Z,6.85
2023-10-05T11:01:05.076Z,6.57
2023-10-05T11:03:33.678Z,5.80
2023-10-05T11:06:02.823Z,6.40
2023-10-05T11:08:33.036Z,7.32
2023-10-05T11:11:04.731Z,6.72
2023-10-05T11:13:37.321Z,6.82
2023-10-05T11:16:05.376Z,6.55
2023-10-05T11:18:42.640Z,6.22
2023-10-05T11:21:16.027Z,6.30
2023-10-05T11:23:57.435Z,6.18
2023-10-05T11:26:48.379Z,6.30
2023-10-05T11:29:23.494Z,6.38
2023-10-05T11:32:10.376Z,6.25
2023-10-05T11:35:03.989Z,6.43
2023-10-05T11:37:32.432Z,7.07
2023-10-05T11:40:02.583Z,7.20
2023-10-05T11:42:35.822Z,6.82
2023-10-05T11:45:13.833Z,7.38
2023-10-05T11:47:47.038Z,6.75
2023-10-05T11:50:26.750Z,7.00
2023-10-05T11:52:54.303Z,8.20
2023-10-05T11:55:21.787Z,7.38
2023-10-05T11:57:50.021Z,7.50
2023-10-05T12:00:19.820Z,6.97
2023-10-05T12:02:47.726Z,7.40
2023-10-05T12:05:15.707Z,7.72
2023-10-05T12:07:47.352Z,7.20
2023-10-05T12:10:14.988Z,6.85
2023-10-05T12:12:43.132Z,7.22
2023-10-05T12:15:14.097Z,6.30
2023-10-05T12:17:41.603Z,5.60
2023-10-05T12:20:10.207Z,5.32
2023-10-05T12:22:38.792Z,5.75
2023-10-05T12:25:09.031Z,5.70
2023-10-05T12:27:36.662Z,5.80
2023-10-05T12:30:18.014Z,6.35
2023-10-05T12:32:46.399Z,6.55
2023-10-05T12:35:14.959Z,6.30
2023-10-05T12:37:43.276Z,6.90
2023-10-05T12:40:19.531Z,6.00
2023-10-05T12:43:13.469Z,6.70
2023-10-05T12:45:40.971Z,6.38
2023-10-05T12:48:08.347Z,6.72
2023-10-05T12:50:35.974Z,6.93
2023-10-05T12:53:03.611Z,6.40
2023-10-05T12:55:33.702Z,5.80
2023-10-05T12:58:00.900Z,6.07
2023-10-05T13:00:48.087Z,5.93
2023-10-05T13:03:15.307Z,5.28
2023-10-05T13:05:48.027Z,5.20
2023-10-05T13:08:17.625Z,4.90
2023-10-05T13:10:46.541Z,5.63
2023-10-05T13:13:21.664Z,6.07
2023-10-05T13:15:49.197Z,5.93
2023-10-05T13:18:19.667Z,5.00
2023-10-05T13:20:51.297Z,5.35
2023-10-05T13:23:23.212Z,5.18
2023-10-05T13:25:52.004Z,5.28
2023-10-05T13:28:20.841Z,5.18
2023-10-05T13:30:49.563Z,5.13
2023-10-05T13:33:24.260Z,4.60
2023-10-05T13:35:53.857Z,3.67
2023-10-05T13:38:28.933Z,3.20
2023-10-05T13:41:02.865Z,2.78
2023-10-05T13:43:31.501Z,2.90
2023-10-05T13:46:29.613Z,3.00
2023-10-05T13:48:57.288Z,2.80
2023-10-05T13:51:35.907Z,2.75
2023-10-05T13:54:08.151Z,2.75
2023-10-05T13:56:35.357Z,2.30
2023-10-05T13:59:07.689Z,2.70
2023-10-05T14:01:45.172Z,2.40
2023-10-05T14:04:16.121Z,2.40
2023-10-05T14:06:44.879Z,2.70
2023-10-05T14:09:12.642Z,2.92
2023-10-05T14:11:41.365Z,2.72
2023-10-05T14:14:12.452Z,2.25
2023-10-05T14:19:28.904Z,2.22
2023-10-05T14:22:01.039Z,2.30
2023-10-05T14:24:28.560Z,2.08
2023-10-05T14:26:55.763Z,2.20
2023-10-05T14:29:35.925Z,2.10
2023-10-05T14:32:07.217Z,2.28
2023-10-05T14:34:35.236Z,2.95
2023-10-05T14:37:07.061Z,2.42
2023-10-05T14:39:34.665Z,2.15
2023-10-05T14:42:02.142Z,2.08
2023-10-05T14:44:30.621Z,2.33
2023-10-05T14:47:00.924Z,2.30
2023-10-05T14:49:28.037Z,2.05
2023-10-05T14:51:55.032Z,2.15
2023-10-05T14:54:23.373Z,2.10
2023-10-05T14:56:51.130Z,2.30
2023-10-05T14:59:18.431Z,2.22
2023-10-05T15:01:48.243Z,1.98
2023-10-05T15:04:18.385Z,2.58
2023-10-05T15:06:45.399Z,2.03
2023-10-05T15:09:13.438Z,2.47
2023-10-05T15:11:40.650Z,2.30
2023-10-05T15:14:10.439Z,2.50
2023-10-05T15:16:37.512Z,2.67
2023-10-05T15:19:04.963Z,2.42
2023-10-05T15:21:31.971Z,2.40
2023-10-05T15:23:59.488Z,2.17
2023-10-05T15:26:26.716Z,2.13
2023-10-05T15:28:53.752Z,2.17
2023-10-05T15:31:21.008Z,1.77
2023-10-05T15:33:48.299Z,1.95
2023-10-05T15:36:15.239Z,2.22
2023-10-05T15:38:42.344Z,1.63
2023-10-05T15:41:09.528Z,1.58
2023-10-05T15:43:38.157Z,1.60
2023-10-05T15:46:07.834Z,1.52
2023-10-05T15:48:38.508Z,1.75
2023-10-05T15:51:05.533Z,1.67
2023-10-05T15:53:32.608Z,1.60
2023-10-05T15:56:03.534Z,1.63
2023-10-05T15:58:30.588Z,1.58
2023-10-05T16:01:00.863Z,1.40
2023-10-05T16:03:28.902Z,1.80
2023-10-05T16:05:56.143Z,1.80
2023-10-05T16:08:23.090Z,2.22
2023-10-05T16:10:51.688Z,1.85
2023-10-05T16:13:18.797Z,1.83
2023-10-05T16:15:45.773Z,1.63
2023-10-05T16:18:12.961Z,1.80
2023-10-05T16:20:42.442Z,2.13
2023-10-05T16:23:12.689Z,3.50
2023-10-05T16:25:41.140Z,4.10
2023-10-05T16:28:10.081Z,3.95
2023-10-05T16:30:37.926Z,2.83
2023-10-05T16:33:07.451Z,2.22
2023-10-05T16:35:34.857Z,1.60
2023-10-05T16:38:02.221Z,1.20
2023-10-05T16:40:30.375Z,1.00
2023-10-05T16:42:59.352Z,1.30
2023-10-05T16:45:27.293Z,1.10
2023-10-05T16:47:55.914Z,1.05
2023-10-05T16:50:25.525Z,1.05
2023-10-05T16:52:53.549Z,1.13
2023-10-05T16:55:21.901Z,0.82
2023-10-05T16:57:51.731Z,1.00
2023-10-05T17:00:28.568Z,0.98
2023-10-05T17:02:57.117Z,1.10
2023-10-05T17:05:30.104Z,0.70
2023-10-05T17:08:02.079Z,1.13
2023-10-05T17:10:31.717Z,1.00
2023-10-05T17:12:58.954Z,1.08
2023-10-05T17:15:27.438Z,0.60
2023-10-05T17:17:55.658Z,0.95
2023-10-05T17:20:23.795Z,0.80
2023-10-05T17:22:51.837Z,0.90
2023-10-05T17:25:19.370Z,1.05
2023-10-05T17:27:46.468Z,0.52
2023-10-05T17:30:15.253Z,0.63
2023-10-05T17:32:47.980Z,0.68
2023-10-05T17:35:23.557Z,0.63
2023-10-05T17:37:52.408Z,0.60
2023-10-05T17:40:20.363Z,0.68
2023-10-05T17:42:47.994Z,1.10
2023-10-05T17:45:15.545Z,0.90
2023-10-05T17:47:42.871Z,0.70
2023-10-05T17:50:10.501Z,1.00
2023-10-05T17:52:37.854Z,0.80
2023-10-05T17:55:08.672Z,0.70
2023-10-05T17:57:35.731Z,0.50
2023-10-05T18:00:06.693Z,0.98
2023-10-05T18:02:36.066Z,0.80
2023-10-05T18:05:06.906Z,0.60
2023-10-05T18:07:33.906Z,0.70
2023-10-05T18:10:00.994Z,0.80
2023-10-05T18:12:27.922Z,0.70
2023-10-05T18:14:57.488Z,0.80
2023-10-05T18:17:26.297Z,0.80
2023-10-05T18:19:54.772Z,0.50
2023-10-05T18:22:23.000Z,0.90
2023-10-05T18:24:50.924Z,0.98
2023-10-05T18:27:18.801Z,0.90
2023-10-05T18:29:46.541Z,1.20
2023-10-05T18:34:49.631Z,1.17
2023-10-05T18:37:16.601Z,1.00
2023-10-05T18:39:43.678Z,1.00
2023-10-05T18:42:10.845Z,1.02
2023-10-05T18:44:41.566Z,1.00
2023-10-05T18:47:10.955Z,1.25
2023-10-05T18:49:38.867Z,1.35
2023-10-05T18:52:06.060Z,1.30
2023-10-05T18:54:33.012Z,1.00
2023-10-05T18:56:59.968Z,0.70
2023-10-05T18:59:27.853Z,1.00
2023-10-05T19:01:59.793Z,0.75
2023-10-05T19:04:28.266Z,1.08
2023-10-05T19:06:56.900Z,0.90
2023-10-05T19:09:25.636Z,0.70
2023-10-05T19:11:56.313Z,1.05
2023-10-05T19:14:23.587Z,1.15
2023-10-05T19:16:53.072Z,0.88
2023-10-05T19:19:20.366Z,1.17
2023-10-05T19:21:47.531Z,1.90
2023-10-05T19:24:15.354Z,1.45
2023-10-05T19:26:43.973Z,1.50
2023-10-05T19:29:11.412Z,1.27
2023-10-05T19:31:38.498Z,1.00
2023-10-05T19:34:07.447Z,1.08
2023-10-05T19:36:34.632Z,1.23
2023-10-05T19:39:01.664Z,1.20
2023-10-05T19:41:28.747Z,1.48
2023-10-05T19:43:55.893Z,1.10
2023-10-05T19:46:24.416Z,1.00
2023-10-05T19:48:51.632Z,1.00
2023-10-05T19:51:19.359Z,1.10
2023-10-05T19:53:46.822Z,1.05
2023-10-05T19:56:26.075Z,1.48
2023-10-05T19:58:58.011Z,1.35
2023-10-05T20:01:25.796Z,1.67
2023-10-05T20:03:52.880Z,1.20
2023-10-05T20:06:20.226Z,1.05
2023-10-05T20:08:47.318Z,1.50
2023-10-05T20:11:14.836Z,1.25
2023-10-05T20:13:42.014Z,1.70
2023-10-05T20:16:13.433Z,1.42
2023-10-05T20:18:40.502Z,1.70
2023-10-05T20:21:11.041Z,1.10
2023-10-05T20:23:38.171Z,1.20
2023-10-05T20:26:08.845Z,1.02
2023-10-05T20:28:36.585Z,0.85
2023-10-05T20:31:05.654Z,0.73
2023-10-05T20:33:33.648Z,0.80
2023-10-05T20:36:07.652Z,1.17
2023-10-05T20:38:35.331Z,0.90
2023-10-05T20:41:05.657Z,0.82
2023-10-05T20:43:33.325Z,0.70
2023-10-05T20:46:00.553Z,0.60
2023-10-05T20:48:27.997Z,0.60
2023-10-05T20:50:54.909Z,0.70
2023-10-05T20:53:21.918Z,0.80
2023-10-05T20:55:48.861Z,1.00
2023-10-05T20:58:17.255Z,1.30
2023-10-05T21:00:45.322Z,1.10
2023-10-05T21:03:12.299Z,1.08
2023-10-05T21:05:39.277Z,0.90
2023-10-05T21:08:06.438Z,0.70
2023-10-05T21:10:33.965Z,0.82
2023-10-05T21:13:01.704Z,0.80
2023-10-05T21:15:28.782Z,0.85
2023-10-05T21:17:56.136Z,0.60
2023-10-05T21:20:23.873Z,0.80
2023-10-05T21:22:50.869Z,1.00
2023-10-05T21:25:18.927Z,0.80
2023-10-05T21:27:46.707Z,0.85
2023-10-05T21:30:14.644Z,1.08
2023-10-05T21:32:41.605Z,0.80
2023-10-05T21:35:09.129Z,0.80
2023-10-05T21:37:36.257Z,0.90
2023-10-05T21:40:04.472Z,0.80
2023-10-05T21:42:31.458Z,0.70
2023-10-05T21:45:15.365Z,0.70
2023-10-05T21:47:43.491Z,1.20
2023-10-05T21:50:14.238Z,1.05
2023-10-05T21:52:42.570Z,1.15
2023-10-05T21:55:10.959Z,0.75
2023-10-05T21:57:38.311Z,1.02
2023-10-05T22:00:10.235Z,1.02
2023-10-05T22:02:38.412Z,0.88
2023-10-05T22:05:06.119Z,0.80
2023-10-05T22:07:33.134Z,0.93
2023-10-05T22:10:00.089Z,1.23
2023-10-05T22:12:31.725Z,0.93
2023-10-05T22:14:58.645Z,0.80
2023-10-05T22:17:25.626Z,0.70
2023-10-05T22:19:52.568Z,0.98
2023-10-05T22:22:19.863Z,0.80
2023-10-05T22:24:46.926Z,0.73
2023-10-05T22:27:13.835Z,0.90
2023-10-05T22:29:41.171Z,0.90
2023-10-05T22:32:08.220Z,0.68
2023-10-05T22:34:36.143Z,0.80
2023-10-05T22:37:03.185Z,0.70
2023-10-05T22:39:30.245Z,0.90
2023-10-05T22:41:57.358Z,0.68
2023-10-05T22:44:24.308Z,0.60
2023-10-05T22:46:53.531Z,0.90
2023-10-05T22:49:24.148Z,0.70
2023-10-05T22:51:51.236Z,0.75
2023-10-05T22:54:18.150Z,0.82
2023-10-05T22:56:45.563Z,0.68
2023-10-05T22:59:12.712Z,0.80
2023-10-05T23:01:41.372Z,0.75
2023-10-05T23:04:09.130Z,0.68
2023-10-05T23:06:36.124Z,1.10
2023-10-05T23:09:07.559Z,0.40
2023-10-05T23:11:35.133Z,0.60
2023-10-05T23:14:02.091Z,0.80
2023-10-05T23:16:30.095Z,0.73
2023-10-05T23:19:00.145Z,0.70
2023-10-05T23:21:27.916Z,0.68
2023-10-05T23:23:55.277Z,0.75
2023-10-05T23:26:25.195Z,0.77
2023-10-05T23:28:52.727Z,0.50
2023-10-05T23:31:20.661Z,0.80
2023-10-05T23:33:49.000Z,0.50
2023-10-05T23:36:19.680Z,0.52
2023-10-05T23:38:47.018Z,0.70
2023-10-05T23:41:15.228Z,0.70
2023-10-05T23:43:44.837Z,0.90
2023-10-05T23:46:16.053Z,0.80
2023-10-05T23:48:43.214Z,0.70
2023-10-05T23:51:10.259Z,0.60
2023-10-05T23:53:37.586Z,0.80
2023-10-05T23:56:10.757Z,0.70
2023-10-05T23:58:38.025Z,0.80
